Time;durP1;ratioP1;P1;durP2;ratioP2;P2;SDS_P1;SDS_P2;PMS_P1;PMS_P2;Temp;Humidity;BMP_temperature;BMP_pressure;BME280_temperature;BME280_humidity;BME280_pressure;Samples;Min_cycle;Max_cycle;Signal;HPM_P1;HPM_P2
2024/01/11 00:02:25;;;;;;;32.47;18.20;;;;;;;-5.56;87.80;103007.81;5283239;28;20048;-70
2024/01/11 00:04:56;;;;;;;31.07;18.40;;;;;;;-5.59;88.52;103021.91;5282907;28;20028;-71
2024/01/11 00:07:28;;;;;;;28.80;15.77;;;;;;;-5.55;88.47;103012.13;5282944;28;20090;-71
2024/01/11 00:10:01;;;;;;;33.87;19.20;;;;;;;-5.55;88.85;103016.34;5283086;28;20039;-70
2024/01/11 00:12:32;;;;;;;32.95;18.75;;;;;;;-5.60;89.41;103007.41;5282164;28;20056;-71
2024/01/11 00:15:04;;;;;;;32.03;19.10;;;;;;;-5.60;89.10;102999.78;5282888;28;20064;-70
2024/01/11 00:17:36;;;;;;;31.03;19.00;;;;;;;-5.59;89.46;103001.56;5283234;28;20056;-71
2024/01/11 00:20:08;;;;;;;32.90;18.83;;;;;;;-5.66;89.03;103014.50;5282818;28;20746;-71
2024/01/11 00:22:39;;;;;;;30.60;18.60;;;;;;;-5.67;89.62;103013.59;5282736;28;20029;-71
2024/01/11 00:25:10;;;;;;;31.07;18.83;;;;;;;-5.68;89.86;103020.31;5282733;28;20278;-70
2024/01/11 00:27:42;;;;;;;35.40;19.43;;;;;;;-5.68;90.05;103011.81;5282636;28;20477;-70
2024/01/11 00:30:13;;;;;;;31.50;18.70;;;;;;;-5.66;89.50;103012.84;5282874;28;20056;-71
2024/01/11 00:32:44;;;;;;;32.07;19.27;;;;;;;-5.71;89.26;103009.88;5282443;28;20033;-70
2024/01/11 00:35:17;;;;;;;33.07;18.83;;;;;;;-5.72;89.08;103010.63;5282749;28;20074;-71
2024/01/11 00:37:49;;;;;;;30.20;18.15;;;;;;;-5.67;89.34;103008.50;5282579;28;20037;-72
2024/01/11 00:40:20;;;;;;;31.58;18.25;;;;;;;-5.74;89.69;103008.72;5282486;28;20029;-72
2024/01/11 00:42:51;;;;;;;31.03;18.37;;;;;;;-5.71;90.15;103009.00;5282938;28;20063;-71
2024/01/11 00:45:23;;;;;;;36.03;19.90;;;;;;;-5.74;89.88;103008.72;5282702;28;20051;-71
2024/01/11 00:47:54;;;;;;;33.73;20.33;;;;;;;-5.76;90.17;103002.63;5282193;28;20056;-71
2024/01/11 00:50:25;;;;;;;34.33;20.57;;;;;;;-5.70;90.01;103004.06;5281824;28;20050;-71
2024/01/11 00:52:58;;;;;;;32.80;19.58;;;;;;;-5.76;90.12;103007.72;5282405;28;20045;-72
2024/01/11 00:55:29;;;;;;;34.13;19.27;;;;;;;-5.71;89.78;103016.63;5282792;28;20361;-72
2024/01/11 00:58:01;;;;;;;34.03;19.40;;;;;;;-5.70;90.43;103008.22;5282413;28;20032;-72
2024/01/11 01:00:32;;;;;;;31.67;19.63;;;;;;;-5.71;90.43;103011.53;5282386;28;20047;-71
2024/01/11 01:03:04;;;;;;;34.80;19.23;;;;;;;-5.72;89.84;103009.75;5281958;28;20067;-72
2024/01/11 01:05:35;;;;;;;34.17;18.43;;;;;;;-5.75;89.92;103012.88;5282354;28;20033;-72
2024/01/11 01:08:06;;;;;;;30.03;19.03;;;;;;;-5.74;89.87;103013.81;5282513;28;20036;-72
2024/01/11 01:10:38;;;;;;;36.80;19.83;;;;;;;-5.75;89.91;103019.63;5282333;28;20475;-72
2024/01/11 01:13:09;;;;;;;35.07;18.83;;;;;;;-5.77;90.41;103016.94;5281820;28;20490;-72
2024/01/11 01:15:41;;;;;;;33.90;19.53;;;;;;;-5.74;90.76;103019.78;5281980;28;20035;-72
2024/01/11 01:18:12;;;;;;;34.40;19.83;;;;;;;-5.73;91.06;103020.66;5282268;28;20056;-72
2024/01/11 01:20:43;;;;;;;35.17;20.03;;;;;;;-5.79;91.09;103023.56;5282107;28;20110;-72
2024/01/11 01:23:15;;;;;;;32.03;18.60;;;;;;;-5.77;91.26;103016.94;5282118;28;20472;-72
2024/01/11 01:25:46;;;;;;;32.73;20.93;;;;;;;-5.80;91.32;103024.28;5285399;28;20124;-71
2024/01/11 01:28:17;;;;;;;32.37;19.00;;;;;;;-5.79;91.28;103025.22;5286177;28;20032;-72
2024/01/11 01:30:49;;;;;;;32.60;19.80;;;;;;;-5.81;91.59;103030.16;5286209;28;20039;-72
2024/01/11 01:33:20;;;;;;;39.37;20.97;;;;;;;-5.82;91.43;103027.47;5285893;28;20037;-71
2024/01/11 01:35:51;;;;;;;35.77;19.37;;;;;;;-5.82;91.28;103030.00;5285592;28;20032;-72
2024/01/11 01:38:23;;;;;;;35.43;20.40;;;;;;;-5.83;91.52;103031.63;5285765;28;20040;-72
2024/01/11 01:40:54;;;;;;;33.63;20.37;;;;;;;-5.89;91.79;103033.66;5285694;28;20036;-72
2024/01/11 01:43:26;;;;;;;23.40;15.33;;;;;;;-5.89;91.57;103038.75;5285341;28;20036;-72
2024/01/11 01:45:58;;;;;;;33.03;20.70;;;;;;;-5.89;91.93;103052.31;5285493;28;20418;-72
2024/01/11 01:48:30;;;;;;;33.17;19.30;;;;;;;-5.91;92.03;103056.38;5285752;28;20471;-72
2024/01/11 01:51:02;;;;;;;31.87;20.33;;;;;;;-5.91;91.70;103058.91;5285453;28;20059;-71
2024/01/11 01:53:34;;;;;;;27.15;16.88;;;;;;;-5.92;91.37;103053.69;5284132;28;20064;-72
2024/01/11 01:56:06;;;;;;;36.70;21.40;;;;;;;-5.93;90.97;103062.94;5285854;28;20032;-72
2024/01/11 01:58:38;;;;;;;35.42;20.73;;;;;;;-5.89;91.73;103070.09;5284159;28;20053;-71
2024/01/11 02:01:10;;;;;;;33.40;19.27;;;;;;;-5.92;92.21;103067.28;5285587;28;20495;-72
2024/01/11 02:03:43;;;;;;;30.63;19.57;;;;;;;-5.92;91.88;103064.75;5284149;28;20033;-71
2024/01/11 02:06:15;;;;;;;32.55;19.95;;;;;;;-5.91;92.23;103070.69;5285166;28;20036;-71
2024/01/11 02:08:47;;;;;;;32.88;20.42;;;;;;;-5.93;91.99;103062.06;5285422;28;20436;-71
2024/01/11 02:11:20;;;;;;;30.42;18.92;;;;;;;-6.01;91.60;103060.50;5284834;28;20036;-71
2024/01/11 02:13:52;;;;;;;32.40;18.98;;;;;;;-5.99;92.08;103048.81;5283228;28;20036;-71
2024/01/11 02:16:24;;;;;;;36.70;18.77;;;;;;;-6.05;92.37;103044.09;5284872;28;20037;-70
2024/01/11 02:18:55;;;;;;;29.70;18.70;;;;;;;-6.02;92.18;103041.84;5284534;28;20484;-71
2024/01/11 02:21:28;;;;;;;30.13;18.60;;;;;;;-6.05;92.35;103044.09;5284539;28;20029;-71
2024/01/11 02:24:04;;;;;;;35.00;19.92;;;;;;;-6.09;92.36;103045.44;5284683;28;20066;-70
2024/01/11 02:26:35;;;;;;;31.33;19.77;;;;;;;-6.15;92.32;103044.00;5285161;28;20039;-70
2024/01/11 02:29:07;;;;;;;34.73;19.30;;;;;;;-6.11;92.46;103043.53;5284553;28;20032;-71
2024/01/11 02:31:38;;;;;;;31.87;19.13;;;;;;;-6.20;92.33;103041.03;5283228;28;20082;-71
2024/01/11 02:34:10;;;;;;;33.33;19.97;;;;;;;-6.21;92.67;103048.50;5284215;28;20112;-71
2024/01/11 02:36:42;;;;;;;34.28;19.20;;;;;;;-6.28;92.64;103055.59;5283798;28;20032;-71
2024/01/11 02:39:17;;;;;;;35.00;20.67;;;;;;;-6.33;92.73;103060.97;5284102;28;20064;-70
2024/01/11 02:41:55;;;;;;;36.28;20.30;;;;;;;-6.33;93.28;103063.50;5284101;28;20024;-70
2024/01/11 02:44:27;;;;;;;35.15;20.63;;;;;;;-6.37;93.76;103061.47;5283941;28;20028;-71
2024/01/11 02:46:58;;;;;;;31.03;19.53;;;;;;;-6.38;93.57;103060.53;5284174;28;20376;-70
2024/01/11 02:49:29;;;;;;;32.03;19.73;;;;;;;-6.42;94.08;103056.84;5284364;28;20060;-70
2024/01/11 02:52:01;;;;;;;33.50;20.43;;;;;;;-6.40;94.10;103059.53;5283673;28;20071;-70
2024/01/11 02:54:32;;;;;;;32.40;18.70;;;;;;;-6.44;94.39;103065.03;5284456;28;20056;-69
2024/01/11 02:57:04;;;;;;;32.87;20.20;;;;;;;-6.51;94.32;103055.09;5282491;28;20033;-69
2024/01/11 02:59:36;;;;;;;35.07;18.80;;;;;;;-6.48;94.66;103060.47;5283733;28;20087;-70
2024/01/11 03:02:07;;;;;;;35.15;19.90;;;;;;;-6.49;94.72;103061.19;5283714;28;20266;-70
2024/01/11 03:04:39;;;;;;;33.77;20.57;;;;;;;-6.51;94.99;103062.72;5283647;28;20020;-70
2024/01/11 03:07:10;;;;;;;32.50;19.13;;;;;;;-6.54;95.24;103055.69;5283693;28;20024;-69
2024/01/11 03:09:42;;;;;;;29.40;18.63;;;;;;;-6.55;95.21;103053.94;5283683;28;20025;-69
2024/01/11 03:12:13;;;;;;;35.37;21.70;;;;;;;-6.55;95.42;103060.63;5283227;28;20408;-69
2024/01/11 03:14:44;;;;;;;36.40;20.97;;;;;;;-6.56;95.74;103062.28;5283658;28;20024;-70
2024/01/11 03:17:16;;;;;;;39.67;19.83;;;;;;;-6.55;95.63;103069.16;5282071;28;20040;-69
2024/01/11 03:19:47;;;;;;;31.50;18.67;;;;;;;-6.65;94.83;103061.41;5282907;28;20070;-69
2024/01/11 03:22:18;;;;;;;34.20;19.47;;;;;;;-6.64;95.44;103063.19;5283385;28;20108;-70
2024/01/11 03:24:50;;;;;;;35.03;20.37;;;;;;;-6.63;95.33;103070.97;5283614;28;20032;-69
2024/01/11 03:27:22;;;;;;;34.67;19.80;;;;;;;-6.61;95.46;103064.38;5283370;28;20432;-69
2024/01/11 03:29:53;;;;;;;31.00;18.85;;;;;;;-6.62;96.46;103060.06;5283651;28;20424;-69
2024/01/11 03:32:24;;;;;;;29.60;19.53;;;;;;;-6.66;96.03;103052.91;5283521;28;20464;-69
2024/01/11 03:34:56;;;;;;;35.60;20.80;;;;;;;-6.67;95.62;103051.13;5283088;28;20071;-69
2024/01/11 03:37:27;;;;;;;32.10;19.23;;;;;;;-6.63;96.13;103055.75;5283269;28;20460;-70
2024/01/11 03:39:59;;;;;;;35.53;19.90;;;;;;;-6.63;96.15;103059.94;5282898;28;20036;-70
2024/01/11 03:42:31;;;;;;;38.17;21.48;;;;;;;-6.63;96.01;103067.53;5283434;28;20044;-69
2024/01/11 03:45:04;;;;;;;33.17;20.67;;;;;;;-6.67;95.76;103057.84;5283241;28;20033;-70
2024/01/11 03:47:35;;;;;;;;;;;;;;;-6.64;95.00;103053.94;5283076;28;20037;-69
2024/01/11 03:50:07;;;;;;;31.55;18.58;;;;;;;-6.72;95.04;103047.25;5282802;28;19927;-69
2024/01/11 03:52:39;;;;;;;35.17;20.97;;;;;;;-6.73;95.51;103052.19;5283173;28;20056;-69
2024/01/11 03:55:10;;;;;;;29.67;18.80;;;;;;;-6.73;95.77;103049.66;5282817;28;20086;-69
2024/01/11 03:57:44;;;;;;;33.17;19.57;;;;;;;-6.73;96.23;103048.00;5281427;28;20033;-69
2024/01/11 04:00:15;;;;;;;34.65;21.77;;;;;;;-6.75;96.09;103057.13;5282131;28;20040;-70
2024/01/11 04:02:47;;;;;;;33.37;21.67;;;;;;;-6.91;95.75;103066.56;5282884;28;20332;-69
2024/01/11 04:05:18;;;;;;;31.70;19.97;;;;;;;-6.86;96.32;103063.75;5282453;28;20085;-69
2024/01/11 04:07:49;;;;;;;34.60;21.07;;;;;;;-6.84;96.00;103051.16;5282323;28;20051;-68
2024/01/11 04:10:21;;;;;;;33.13;20.70;;;;;;;-6.86;96.55;103058.66;5282261;28;20028;-69
2024/01/11 04:12:52;;;;;;;38.00;21.10;;;;;;;-6.85;96.58;103051.94;5282506;28;20089;-69
2024/01/11 04:15:23;;;;;;;37.73;20.10;;;;;;;-6.86;96.62;103053.59;5282699;28;20082;-69
2024/01/11 04:17:55;;;;;;;38.07;20.23;;;;;;;-6.85;96.95;103060.44;5282497;28;20107;-70
2024/01/11 04:20:26;;;;;;;35.43;20.10;;;;;;;-6.91;97.31;103067.44;5282824;28;20094;-69
2024/01/11 04:22:57;;;;;;;34.93;19.63;;;;;;;-6.93;96.90;103093.44;5282442;28;20086;-69
2024/01/11 04:25:29;;;;;;;33.73;20.57;;;;;;;-6.95;97.16;103095.81;5282160;28;20031;-69
2024/01/11 04:28:00;;;;;;;35.53;20.17;;;;;;;-6.99;97.24;103096.25;5282275;28;20063;-69
2024/01/11 04:30:32;;;;;;;37.83;20.67;;;;;;;-7.03;96.98;103092.53;5282224;28;20037;-69
2024/01/11 04:33:03;;;;;;;36.37;20.60;;;;;;;-6.98;96.96;103090.44;5281890;28;20024;-69
2024/01/11 04:35:35;;;;;;;34.37;20.93;;;;;;;-7.00;97.35;103092.84;5282586;28;20271;-70
2024/01/11 04:38:06;;;;;;;32.37;19.53;;;;;;;-6.97;97.66;103098.22;5281874;28;20029;-70
2024/01/11 04:40:38;;;;;;;37.23;19.30;;;;;;;-6.99;97.54;103114.94;5282402;28;20139;-69
2024/01/11 04:43:10;;;;;;;36.30;21.77;;;;;;;-7.02;97.26;103106.09;5282073;28;20036;-69
2024/01/11 04:45:41;;;;;;;35.70;21.50;;;;;;;-7.00;97.10;103114.78;5282124;28;20047;-69
2024/01/11 04:48:13;;;;;;;32.60;19.70;;;;;;;-7.04;96.91;103110.16;5282058;28;20028;-70
2024/01/11 04:50:45;;;;;;;30.67;19.13;;;;;;;-7.06;97.24;103107.47;5282022;28;20031;-70
2024/01/11 04:53:16;;;;;;;33.80;19.43;;;;;;;-7.08;97.56;103097.91;5281967;28;20115;-70
2024/01/11 04:55:47;;;;;;;35.93;21.17;;;;;;;-7.06;97.70;103096.44;5280664;28;20032;-70
2024/01/11 04:58:19;;;;;;;34.00;20.10;;;;;;;-7.15;96.83;103097.34;5282059;28;20033;-70
2024/01/11 05:00:50;;;;;;;32.73;19.10;;;;;;;-7.07;97.76;103100.59;5285563;28;20063;-71
2024/01/11 05:03:21;;;;;;;35.93;20.97;;;;;;;-7.06;96.96;103101.50;5286596;28;20058;-71
2024/01/11 05:05:53;;;;;;;33.07;20.07;;;;;;;-7.12;97.51;103101.78;5286393;28;20051;-71
2024/01/11 05:08:27;;;;;;;38.40;22.93;;;;;;;-7.14;97.80;103108.38;5286323;28;20038;-71
2024/01/11 05:10:59;;;;;;;34.38;20.42;;;;;;;-7.13;97.87;103105.09;5285970;28;20068;-71
2024/01/11 05:13:30;;;;;;;34.73;20.43;;;;;;;-7.15;98.17;103101.50;5286050;28;20504;-71
2024/01/11 05:16:02;;;;;;;30.37;18.33;;;;;;;-7.16;97.39;103105.69;5285530;28;20039;-71
2024/01/11 05:18:33;;;;;;;35.67;20.40;;;;;;;-7.19;98.21;103107.91;5285950;28;20158;-71
2024/01/11 05:21:04;;;;;;;35.03;21.00;;;;;;;-7.20;97.87;103115.38;5286074;28;20460;-70
2024/01/11 05:23:36;;;;;;;36.97;21.47;;;;;;;-7.21;97.67;103111.97;5285763;28;20033;-71
2024/01/11 05:26:10;;;;;;;34.77;21.47;;;;;;;-7.21;98.10;103118.66;5285764;28;20094;-71
2024/01/11 05:28:42;;;;;;;35.10;19.50;;;;;;;-7.25;97.73;103119.13;5285618;28;20024;-71
2024/01/11 05:31:15;;;;;;;36.67;19.53;;;;;;;-7.23;98.46;103117.59;5285622;28;20025;-71
2024/01/11 05:33:46;;;;;;;34.90;20.33;;;;;;;-7.32;98.66;103137.91;5286175;28;20486;-71
2024/01/11 05:36:17;;;;;;;32.13;19.50;;;;;;;-7.30;98.17;103125.38;5285280;28;20052;-71
2024/01/11 05:38:49;;;;;;;31.40;19.73;;;;;;;-7.26;98.50;103142.66;5286243;28;20081;-71
2024/01/11 05:41:20;;;;;;;35.13;19.47;;;;;;;-7.34;98.52;103142.81;5285977;28;20368;-72
2024/01/11 05:43:51;;;;;;;36.37;19.40;;;;;;;-7.33;98.87;103151.31;5285593;28;20506;-72
2024/01/11 05:46:23;;;;;;;35.13;21.10;;;;;;;-7.43;98.69;103163.81;5285471;28;20028;-72
2024/01/11 05:48:54;;;;;;;33.70;19.47;;;;;;;-7.39;99.13;103160.84;5285816;28;20039;-72
2024/01/11 05:51:26;;;;;;;33.77;19.90;;;;;;;-7.39;99.33;103156.69;5285310;28;20121;-72
2024/01/11 05:53:58;;;;;;;31.75;20.10;;;;;;;-7.37;99.62;103139.09;5283958;28;20039;-72
2024/01/11 05:56:29;;;;;;;30.00;18.27;;;;;;;-7.40;99.96;103132.06;5284238;28;20487;-71
2024/01/11 05:59:01;;;;;;;34.30;19.93;;;;;;;-7.38;100.00;103133.09;5285481;28;20056;-72
2024/01/11 06:01:32;;;;;;;32.30;18.80;;;;;;;-7.35;99.93;103128.34;5285223;28;20459;-72
2024/01/11 06:04:03;;;;;;;38.03;23.57;;;;;;;-7.36;99.58;103141.78;5283596;28;20028;-72
2024/01/11 06:06:35;;;;;;;35.30;21.87;;;;;;;-7.40;100.00;103138.78;5285330;28;20035;-72
2024/01/11 06:09:07;;;;;;;34.10;20.97;;;;;;;-7.37;99.80;103146.69;5284912;28;20028;-72
2024/01/11 06:11:38;;;;;;;36.10;20.85;;;;;;;-7.39;100.00;103151.63;5284896;28;20040;-73
2024/01/11 06:14:09;;;;;;;34.20;20.93;;;;;;;-7.43;100.00;103156.22;5285032;28;20036;-72
2024/01/11 06:16:42;;;;;;;41.23;21.70;;;;;;;-7.42;100.00;103163.97;5285280;28;20032;-72
2024/01/11 06:19:13;;;;;;;33.22;19.50;;;;;;;-7.52;100.00;103181.53;5285375;28;20043;-73
2024/01/11 06:21:46;;;;;;;38.03;19.97;;;;;;;-7.51;100.00;103180.78;5285228;28;20025;-73
2024/01/11 06:24:17;;;;;;;;;;;;;;;-7.50;99.69;103164.88;5285433;28;20108;-72
2024/01/11 06:26:49;;;;;;;35.78;20.67;;;;;;;-7.52;99.66;103153.66;5283340;28;19909;-72
2024/01/11 06:29:20;;;;;;;42.78;22.48;;;;;;;-7.54;100.00;103166.19;5284801;28;20031;-73
2024/01/11 06:31:52;;;;;;;46.70;25.30;;;;;;;-7.53;100.00;103165.44;5285290;28;20035;-73
2024/01/11 06:34:23;;;;;;;59.23;27.93;;;;;;;-7.54;100.00;103173.78;5284836;28;20032;-73
2024/01/11 06:36:55;;;;;;;41.90;21.43;;;;;;;-7.57;100.00;103175.13;5284825;28;20071;-73
2024/01/11 06:39:26;;;;;;;82.50;41.33;;;;;;;-7.56;100.00;103162.59;5284846;28;20036;-73
2024/01/11 06:41:58;;;;;;;95.97;46.50;;;;;;;-7.59;100.00;103169.91;5285202;28;20086;-72
2024/01/11 06:44:30;;;;;;;74.75;36.20;;;;;;;-7.59;100.00;103151.28;5283431;28;20032;-73
2024/01/11 06:47:03;;;;;;;58.97;32.33;;;;;;;-7.58;100.00;103158.13;5284595;28;20032;-74
2024/01/11 06:49:39;;;;;;;81.22;39.75;;;;;;;-7.62;100.00;103171.25;5283678;28;20044;-74
2024/01/11 06:52:11;;;;;;;69.30;37.25;;;;;;;-7.66;100.00;103172.59;5282531;28;20049;-75
2024/01/11 06:54:42;;;;;;;64.87;34.93;;;;;;;-7.65;100.00;103174.34;5284164;28;20064;-73
2024/01/11 06:57:13;;;;;;;53.00;26.30;;;;;;;-7.67;100.00;103182.56;5284303;28;20423;-73
2024/01/11 06:59:46;;;;;;;42.00;24.37;;;;;;;-7.70;100.00;103185.66;5283428;28;20089;-73
2024/01/11 07:02:17;;;;;;;39.88;24.05;;;;;;;-7.71;100.00;103184.78;5283508;28;20111;-73
2024/01/11 07:04:49;;;;;;;39.57;20.17;;;;;;;-7.72;100.00;103185.50;5283753;28;20112;-73
2024/01/11 07:07:20;;;;;;;33.23;20.47;;;;;;;-7.74;100.00;103186.13;5284209;28;20494;-73
2024/01/11 07:09:54;;;;;;;31.97;20.63;;;;;;;-7.76;100.00;103183.44;5265697;28;20079;-73
2024/01/11 07:12:26;;;;;;;32.63;20.40;;;;;;;-7.80;100.00;103188.91;5283097;28;20041;-73
2024/01/11 07:14:57;;;;;;;33.40;19.30;;;;;;;-7.77;100.00;103191.75;5282473;28;20379;-74
2024/01/11 07:17:29;;;;;;;33.07;18.97;;;;;;;-7.78;100.00;103205.16;5283462;28;20024;-72
2024/01/11 07:20:00;;;;;;;32.00;20.37;;;;;;;-7.83;100.00;103206.34;5282283;28;20058;-72
2024/01/11 07:22:32;;;;;;;34.97;18.97;;;;;;;-7.83;100.00;103207.97;5282619;28;20028;-72
2024/01/11 07:25:04;;;;;;;27.63;18.50;;;;;;;-7.81;100.00;103203.97;5282521;28;20107;-72
2024/01/11 07:27:36;;;;;;;31.45;18.23;;;;;;;-7.85;100.00;103207.81;5283469;28;20405;-72
2024/01/11 07:30:08;;;;;;;31.27;18.15;;;;;;;-7.88;100.00;103204.97;5282095;28;20039;-73
2024/01/11 07:32:39;;;;;;;36.05;18.85;;;;;;;-7.86;100.00;103203.50;5283025;28;20025;-72
2024/01/11 07:35:12;;;;;;;29.13;16.80;;;;;;;-7.85;100.00;103212.00;5282911;28;20472;-72
2024/01/11 07:37:43;;;;;;;32.00;19.58;;;;;;;-7.89;100.00;103220.91;5283002;28;20054;-73
2024/01/11 07:40:16;;;;;;;33.43;18.73;;;;;;;-7.90;100.00;103214.94;5282967;28;20154;-72
2024/01/11 07:42:47;;;;;;;;;;;;;;;-7.89;100.00;103215.84;5282001;28;20024;-72
2024/01/11 07:45:19;;;;;;;30.35;17.92;;;;;;;-7.87;100.00;103206.78;5282757;28;20259;-70
2024/01/11 07:47:50;;;;;;;32.47;17.67;;;;;;;-7.93;100.00;103198.56;5283000;28;20521;-71
2024/01/11 07:50:22;;;;;;;26.47;16.57;;;;;;;-7.88;100.00;103200.81;5282896;28;20028;-72
2024/01/11 07:52:53;;;;;;;31.00;16.17;;;;;;;-7.84;100.00;103196.06;5282813;28;20052;-71
2024/01/11 07:55:26;;;;;;;31.40;19.83;;;;;;;-7.85;100.00;103207.81;5282448;28;20125;-71
2024/01/11 07:57:57;;;;;;;31.67;18.42;;;;;;;-7.79;100.00;103213.50;5282694;28;20380;-72
2024/01/11 08:00:29;;;;;;;32.30;18.27;;;;;;;-7.81;100.00;103212.44;5282738;28;20033;-71
2024/01/11 08:03:00;;;;;;;29.60;18.27;;;;;;;-7.82;100.00;103217.34;5282606;28;20029;-71
2024/01/11 08:05:31;;;;;;;26.60;17.53;;;;;;;-7.77;100.00;103219.63;5282757;28;20028;-72
2024/01/11 08:08:03;;;;;;;33.73;17.07;;;;;;;-7.76;100.00;103211.28;5282069;28;20037;-72
2024/01/11 08:10:34;;;;;;;33.28;17.92;;;;;;;-7.70;100.00;103205.94;5282614;28;20128;-72
2024/01/11 08:13:06;;;;;;;27.93;17.47;;;;;;;-7.65;100.00;103206.41;5282663;28;20116;-71
2024/01/11 08:15:37;;;;;;;26.07;15.73;;;;;;;-7.62;100.00;103210.13;5282616;28;20033;-71
2024/01/11 08:18:09;;;;;;;29.47;16.10;;;;;;;-7.51;100.00;103201.06;5282958;28;20455;-72
2024/01/11 08:20:41;;;;;;;25.38;16.70;;;;;;;-7.44;100.00;103197.50;5281551;28;20036;-71
2024/01/11 08:23:12;;;;;;;30.83;15.73;;;;;;;-7.33;100.00;103189.31;5283020;28;20037;-72
2024/01/11 08:25:43;;;;;;;28.70;16.70;;;;;;;-7.20;100.00;103181.28;5282213;28;20037;-71
2024/01/11 08:28:15;;;;;;;28.67;16.93;;;;;;;-7.12;100.00;103184.56;5282543;28;20028;-71
2024/01/11 08:30:46;;;;;;;29.73;17.13;;;;;;;-7.02;100.00;103187.25;5282023;28;20032;-71
2024/01/11 08:33:17;;;;;;;29.33;17.20;;;;;;;-6.98;100.00;103187.69;5282330;28;20033;-71
2024/01/11 08:35:49;;;;;;;31.97;17.17;;;;;;;-6.84;100.00;103190.66;5282320;28;20032;-71
2024/01/11 08:38:20;;;;;;;22.80;14.80;;;;;;;-6.85;100.00;103191.41;5282536;28;20028;-72
2024/01/11 08:40:52;;;;;;;30.33;17.17;;;;;;;-6.80;100.00;103202.91;5282177;28;20032;-73
2024/01/11 08:43:23;;;;;;;24.77;15.97;;;;;;;-6.82;100.00;103200.22;5281064;28;20444;-72
2024/01/11 08:45:55;;;;;;;30.43;17.47;;;;;;;-6.77;100.00;103198.13;5282572;28;20064;-74
2024/01/11 08:48:26;;;;;;;30.10;18.17;;;;;;;-6.65;100.00;103190.78;5281947;28;20024;-72
2024/01/11 08:50:58;;;;;;;45.90;25.50;;;;;;;-6.51;100.00;103193.00;5282664;28;20058;-73
2024/01/11 08:53:29;;;;;;;30.80;20.10;;;;;;;-6.36;100.00;103198.63;5282043;28;20326;-73
2024/01/11 08:56:00;;;;;;;30.10;17.30;;;;;;;-6.23;100.00;103198.13;5282458;28;20036;-73
2024/01/11 08:58:32;;;;;;;29.67;16.83;;;;;;;-5.96;100.00;103207.41;5282074;28;20039;-73
2024/01/11 09:01:03;;;;;;;27.17;18.30;;;;;;;-5.87;100.00;103218.44;5280818;28;20068;-72
2024/01/11 09:03:37;;;;;;;39.90;23.10;;;;;;;-5.50;99.90;103231.13;5282116;28;20360;-72
2024/01/11 09:06:11;;;;;;;37.03;21.15;;;;;;;-5.39;98.97;103234.66;5281980;28;20069;-71
2024/01/11 09:08:42;;;;;;;25.17;16.73;;;;;;;-5.22;98.16;103234.53;5280564;28;20043;-71
2024/01/11 09:11:16;;;;;;;24.53;17.03;;;;;;;-5.02;97.54;103232.91;5282524;28;20036;-71
2024/01/11 09:13:47;;;;;;;47.25;25.90;;;;;;;-4.65;97.77;103231.09;5281756;28;20025;-71
2024/01/11 09:16:19;;;;;;;30.67;18.57;;;;;;;-4.57;95.87;103235.22;5281336;28;20044;-70
2024/01/11 09:18:51;;;;;;;28.33;18.07;;;;;;;-4.14;96.28;103238.06;5282018;28;20364;-70
2024/01/11 09:21:22;;;;;;;25.10;16.97;;;;;;;-3.84;96.26;103242.34;5282002;28;20029;-71
2024/01/11 09:23:54;;;;;;;32.37;21.27;;;;;;;-3.50;96.02;103237.56;5282071;28;20475;-71
2024/01/11 09:26:25;;;;;;;32.83;20.27;;;;;;;-3.36;93.33;103239.63;5281605;28;20473;-71
2024/01/11 09:28:57;;;;;;;24.83;17.00;;;;;;;-3.32;89.27;103239.13;5283198;28;20380;-70
2024/01/11 09:31:29;;;;;;;25.13;15.30;;;;;;;-3.23;89.73;103248.28;5282109;28;20033;-70
2024/01/11 09:34:00;;;;;;;26.47;15.87;;;;;;;-3.06;88.69;103245.44;5281356;28;20054;-70
2024/01/11 09:36:33;;;;;;;29.60;18.97;;;;;;;-2.85;88.43;103255.66;5281553;28;20029;-71
2024/01/11 09:39:05;;;;;;;26.77;18.05;;;;;;;-2.63;87.32;103256.63;5281700;28;20024;-71
2024/01/11 09:41:37;;;;;;;26.80;18.17;;;;;;;-2.54;84.88;103263.22;5281187;28;20056;-71
2024/01/11 09:44:09;;;;;;;22.63;16.33;;;;;;;-2.36;84.15;103266.41;5281398;28;20036;-71
2024/01/11 09:46:41;;;;;;;28.37;18.93;;;;;;;-2.13;85.10;103269.09;5285042;28;20491;-71
2024/01/11 09:49:14;;;;;;;29.03;18.03;;;;;;;-1.84;84.83;103275.59;5285452;28;20044;-72
2024/01/11 09:51:47;;;;;;;27.20;17.88;;;;;;;-1.94;81.92;103275.69;5284764;28;20091;-71
2024/01/11 09:54:21;;;;;;;27.73;16.92;;;;;;;-1.59;82.12;103285.19;5285570;28;20033;-72
2024/01/11 09:56:54;;;;;;;28.05;16.92;;;;;;;-1.41;81.28;103284.03;5284948;28;20035;-72
2024/01/11 09:59:26;;;;;;;22.83;16.98;;;;;;;-1.34;79.11;103286.28;5285065;28;20029;-72
2024/01/11 10:01:58;;;;;;;26.87;19.00;;;;;;;-1.09;78.61;103285.59;5284623;28;20043;-72
2024/01/11 10:04:30;;;;;;;27.63;16.25;;;;;;;-1.04;78.17;103293.63;5285031;28;20043;-72
2024/01/11 10:07:05;;;;;;;26.03;15.90;;;;;;;-0.94;74.47;103280.72;5284599;28;20032;-72
2024/01/11 10:09:37;;;;;;;27.70;17.67;;;;;;;-0.54;74.47;103277.66;5284402;28;20125;-72
2024/01/11 10:12:09;;;;;;;25.70;17.53;;;;;;;-0.51;73.60;103285.56;5284941;28;20204;-72
2024/01/11 10:14:40;;;;;;;29.97;18.63;;;;;;;-0.12;72.68;103281.53;5284786;28;20032;-72
2024/01/11 10:17:11;;;;;;;27.33;18.37;;;;;;;0.31;70.41;103281.97;5284433;28;20039;-71
2024/01/11 10:19:43;;;;;;;27.17;17.83;;;;;;;0.06;69.02;103292.19;5284251;28;20033;-71
2024/01/11 10:22:16;;;;;;;23.33;17.17;;;;;;;0.49;68.97;103297.75;5284759;28;20056;-71
2024/01/11 10:24:48;;;;;;;24.08;16.88;;;;;;;0.12;65.18;103292.63;5285234;28;20120;-71
2024/01/11 10:27:19;;;;;;;28.67;18.93;;;;;;;0.44;65.97;103292.28;5284959;28;20173;-72
2024/01/11 10:29:51;;;;;;;23.50;16.87;;;;;;;0.57;65.99;103294.03;5284370;28;20029;-71
2024/01/11 10:32:22;;;;;;;25.27;18.73;;;;;;;0.57;64.21;103296.59;5284260;28;20119;-71
2024/01/11 10:34:54;;;;;;;27.00;19.47;;;;;;;1.13;63.56;103292.59;5284068;28;20449;-71
2024/01/11 10:37:28;;;;;;;25.60;18.50;;;;;;;1.03;62.69;103293.66;5284232;28;20077;-72
2024/01/11 10:40:12;;;;;;;30.10;18.83;;;;;;;0.87;60.97;103296.88;5284335;28;20371;-72
2024/01/11 10:42:54;;;;;;;25.70;18.85;;;;;;;1.23;62.05;103302.72;5284692;28;20550;-71
2024/01/11 10:45:25;;;;;;;23.83;16.83;;;;;;;1.64;60.61;103307.09;5282754;28;20028;-71
2024/01/11 10:48:07;;;;;;;24.67;17.10;;;;;;;2.26;59.90;103299.00;5284073;28;20479;-72
2024/01/11 10:50:42;;;;;;;33.05;17.73;;;;;;;2.58;58.00;103306.88;5284171;28;20162;-73
2024/01/11 10:53:32;;;;;;;28.77;17.85;;;;;;;2.47;56.51;103299.41;5284943;28;20388;-72
2024/01/11 10:56:06;;;;;;;24.92;18.17;;;;;;;3.00;55.57;103289.66;5284144;28;20067;-73
2024/01/11 10:58:41;;;;;;;24.27;17.75;;;;;;;3.75;54.93;103299.13;5284440;28;20062;-72
2024/01/11 11:01:13;;;;;;;27.88;20.30;;;;;;;3.68;53.36;103291.81;5283757;28;20151;-73
2024/01/11 11:03:45;;;;;;;23.02;17.45;;;;;;;3.39;52.64;103285.03;5283722;28;20115;-73
2024/01/11 11:06:18;;;;;;;;;;;;;;;4.10;55.54;103286.38;5284049;28;20036;-73
2024/01/11 11:08:51;;;;;;;25.73;17.92;;;;;;;3.87;52.26;103288.59;5282743;28;19908;-73
2024/01/11 11:11:23;;;;;;;25.30;18.90;;;;;;;3.63;50.72;103294.16;5283722;28;20031;-73
2024/01/11 11:13:57;;;;;;;25.58;18.88;;;;;;;4.12;51.01;103295.06;5283443;28;20020;-73
2024/01/11 11:16:28;;;;;;;22.48;18.23;;;;;;;4.24;49.54;103298.31;5282379;28;20028;-73
2024/01/11 11:19:00;;;;;;;24.73;18.27;;;;;;;4.90;48.72;103304.34;5283896;28;20035;-73
2024/01/11 11:21:31;;;;;;;28.23;19.03;;;;;;;4.67;47.88;103297.09;5283561;28;20031;-73
2024/01/11 11:24:03;;;;;;;25.03;18.17;;;;;;;4.71;46.03;103304.22;5283599;28;20126;-74
2024/01/11 11:26:35;;;;;;;27.77;18.58;;;;;;;5.22;46.14;103314.56;5283765;28;20078;-74
2024/01/11 11:29:06;;;;;;;25.23;18.60;;;;;;;5.14;44.84;103318.47;5282494;28;20048;-72
2024/01/11 11:31:57;;;;;;;28.17;20.13;;;;;;;5.54;46.29;103320.41;5283124;28;20194;-72